Edna St. Vincent Millay

(22 February 1892 – 19 October 1950 / Rockland / Maine / United States)

Stats

» Click to list general statistics » OR, select a date :

General Statistics

Visitors of the poet

Number of visitors of the poet’s mainpage in PoemHunter.Com

Attention : Numbers in this table does not indicate the total hits of poems of the poet, but indicates the hits of the poet’s main page.

Date Hits
02/05/2016 Friday 817
67%
02/04/2016 Thursday 821
67%
02/03/2016 Wednesday 909
75%
02/02/2016 Tuesday 1136
93%
02/01/2016 Monday 925
76%
01/31/2016 Sunday 1211
100%
01/30/2016 Saturday 904
74%
01/29/2016 Friday 835
68%
01/28/2016 Thursday 1111
91%
01/27/2016 Wednesday 905
74%
01/26/2016 Tuesday 929
76%
01/25/2016 Monday 894
73%
01/24/2016 Sunday 873
72%
01/23/2016 Saturday 699
57%
01/22/2016 Friday 877
72%
01/21/2016 Thursday 1033
85%
01/20/2016 Wednesday 894
73%
01/19/2016 Tuesday 796
65%
01/18/2016 Monday 819
67%
01/17/2016 Sunday 678
55%

Reader rating & num.of MyPoemList’s

Click the captions of columns to change the order.

# Poem Title Submit Date Reader Rating Num.of MyPoemList’s
Rating Num.R.
1 I will put Chaos into fourteen lines 10/24/2015 -- 0 0
2 The Prisoner 07/30/2015 -- 0 0
3 She Is Overheard Singing 06/18/2015 -- 0 1
4 The Courage That My Mother Had 01/03/2015 -- 0 1
5 Childhood Is The Kingdom Where Nobody Dies 11/28/2014 -- 0 0
6 To Kathleen 01/01/2004 5.5 57 4
7 Euclid Alone 01/01/2004 5.7 46 16
8 Grown-Up 01/01/2004 6.2 25 31
9 The Betrothal 01/01/2004 5.6 37 14
10 The Blue Flag In The Bog 01/01/2004 5.9 34 4
11 [four Sonnets (1922)] 01/01/2004 5.3 107 30
12 When I Too Long Have Looked Upon Your Face 01/01/2004 6.2 37 31
13 Bluebeard 01/01/2004 5.5 80 43
14 And You As Well Must Die, Belovèd Dust 01/01/2004 6.1 78 53
15 Thursday 01/01/2004 5.3 76 11
16 To A Young Poet 01/01/2004 5.9 61 9
17 If I Should Learn, In Some Quite Casual Way 01/01/2004 6.4 40 36
18 Lines For A Grave-Stone 01/01/2004 6.1 37 8
19 Sonnet Iii: Mindful Of You The Sodden Earth 01/01/2004 5.6 42 5
20 Sonnet Iv: Not In This Chamber 01/01/2004 5.5 42 4
21 I Shall Go Back 01/01/2004 5.5 39 26
22 No Rose That In A Garden Ever Grew 01/01/2004 5.5 36 12
23 We Talk Of Taxes... 01/01/2004 6.2 28 4
24 I, Being Born A Woman And Distressed 01/01/2004 6.7 33 54
25 Sonnet V: If I Should Learn 01/01/2004 5.3 48 4
26 Recuerdo 01/01/2004 6.5 44 20
27 Humoresque 01/01/2004 5.6 30 16
28 I Do But Ask That You Be Always Fair 01/01/2004 5.5 42 29
29 Sonnet Ii: Time Does Not Bring Relief 01/01/2004 6.0 47 25
30 Sonnets (1923) 01/01/2004 5.3 49 6
31 Oh, My Belovèd, Have You Thought Of This 01/01/2004 6.0 36 13
32 Only Until This Cigarette Is Ended 01/01/2004 5.5 36 45
33 Sonnet Vi: This Door You Might Not Open 01/01/2004 5.9 49 12
34 Sonnet I: Thou Art Not Lovelier Than Lilacs 01/01/2004 5.6 43 11
35 Counting-Out Rhyme 01/01/2004 6.1 99 23
36 I Know 100 Ways To Die 07/07/2003 7.8 4 28
37 Chorus 01/13/2003 5.8 82 23
38 Sonnet (Women Have Loved Before As I Love Now) 01/13/2003 5.9 44 18
39 Inland 01/13/2003 5.5 36 8
40 The Wood Road 01/13/2003 5.8 44 6
41 Fontaine, Je Ne Boirai Pas De Ton Eau! 01/13/2003 5.5 31 8
42 Ebb 01/13/2003 5.5 81 25
43 Second Fig 01/13/2003 6.0 47 27
44 Wraith 01/13/2003 5.7 30 12
45 I Dreamed I Moved Among The Elysian Fields 01/13/2003 5.9 68 25
46 Memorial To D.C. 01/13/2003 5.8 31 2
47 The Plaid Dress 01/13/2003 5.8 46 10
48 Interim 01/13/2003 6.1 36 14
49 Midnight Oil 01/13/2003 5.9 36 12
50 Love Is Not All 01/13/2003 7.5 81 176
51 Portrait By A Neighbour 01/13/2003 5.9 35 9
52 Rosemary 01/13/2003 5.6 45 6
53 Not Even My Pride Shall Suffer Much 01/13/2003 5.7 37 9
54 The Leaf And The Tree 01/13/2003 5.9 60 17
55 Kin To Sorrow 01/13/2003 5.5 34 21
56 Lines Written In Recapitulation 01/13/2003 6.2 49 4
57 City Trees 01/13/2003 5.8 134 59
58 To A Poet That Died Young 01/13/2003 5.8 43 7
59 The Shroud 01/13/2003 5.5 57 5
60 Night Is My Sister, And How Deep In Love 01/13/2003 5.7 35 27
61 Sorrow 01/13/2003 5.7 53 26
62 Underground System 01/13/2003 5.8 34 3
63 Apostrophe To Man 01/13/2003 5.9 119 32
64 The Curse 01/13/2003 5.9 68 13
65 Two Sonnets In Memory 01/13/2003 5.9 31 6
66 Scrub 01/13/2003 5.7 42 5
67 Dirge Without Music 01/13/2003 6.5 101 68
68 Spring 01/13/2003 6.1 45 21
69 When We Are Old And These Rejoicing Veins 01/13/2003 5.7 35 14
70 Sonnets 09: Let You Not Say Of Me When I Am Old 01/13/2003 5.6 51 9
71 The Spring And The Fall 01/13/2003 8.0 111 68
72 Sonnets 11: As To Some Lovely Temple, Tenantless 01/13/2003 5.7 44 3
73 Sweet Love, Sweet Thorn, When Lightly To My Heart 01/13/2003 5.6 46 18
74 The Little Hill 01/13/2003 5.8 54 7
75 Wild Swans 01/13/2003 6.0 33 14
76 Think Not, Not For A Moment Let Your Mind 01/13/2003 5.7 54 14
77 Sonnets 12: Cherish You Then The Hope I Shall Forget 01/13/2003 5.5 61 3
78 The Penitent 01/13/2003 5.6 30 11
79 The Goose-Girl 01/13/2003 5.8 69 9
80 Sonnets From An Ungrafted Tree 01/13/2003 5.7 46 4
81 Alms 01/13/2003 5.7 93 27
82 Not In A Silver Casket Cool With Pearls 01/13/2003 5.9 38 20
83 Doubt No More That Oberon 01/13/2003 5.6 66 13
84 Justice Denied In Massachusetts 01/13/2003 5.9 34 8
85 Menses 01/13/2003 5.6 33 6
86 The Fledgling 01/13/2003 5.4 49 2
87 Sonnets 04: Only Until This Cigarette Is Ended 01/13/2003 5.9 35 12
88 I Know I Am But Summer To Your Heart 01/13/2003 6.5 40 48
89 Mist In The Valley 01/13/2003 5.4 33 15
90 The Concert 01/13/2003 5.5 71 7
91 The Singing-Woman From The Wood's Edge 01/13/2003 5.9 45 8
92 The Suicide 01/13/2003 5.5 58 19
93 The True Encounter 01/13/2003 5.9 54 6
94 Whereas At Morning In A Jeweled Crown 01/13/2003 5.4 42 7
95 Weeds 01/13/2003 8.0 1 8
96 The Bean-Stalk 01/13/2003 5.6 58 5
97 Sonnet 03: Mindful Of You The Sodden Earth In Spring 01/13/2003 5.4 42 5
98 The Ballad Of The Harp-Weaver 01/13/2003 5.9 61 29
99 The Blue-Flag In The Bog 01/13/2003 5.3 62 2
100 Elegy 01/13/2003 5.3 42 8
101 Lament 01/13/2003 6.4 39 26
102 Elegy Before Death 01/13/2003 6.1 31 14
103 Song Of A Second April 01/13/2003 5.9 46 9
104 The Fawn 01/13/2003 5.8 66 5
105 A Visit To The Asylum 01/13/2003 6.1 100 59
106 Autumn Daybreak 01/13/2003 5.7 131 44
107 Being Young And Green 01/13/2003 5.6 86 33
108 Dirge 01/13/2003 5.6 68 11
109 Ashes Of Life 01/13/2003 6.0 88 67
110 The Little Ghost 01/13/2003 6.1 38 16
111 Blight 01/13/2003 5.9 96 22
112 Intention To Escape From Him 01/13/2003 6.3 35 21
113 Sonnets 07: When I Too Long Have Looked Upon Your Face 01/13/2003 5.9 44 24
114 Make Bright The Arrows 01/13/2003 5.7 38 4
115 If Still Your Orchards Bear 01/13/2003 5.8 32 7
116 Low-Tide 01/13/2003 4.8 45 14
117 Here Is A Wound That Never Will Heal, I Know 01/13/2003 6.0 56 58
118 I Know The Face Of Falsehood And Her Tongue 01/13/2003 5.6 44 8
119 Witch-Wife 01/13/2003 5.4 39 24
120 Daphne 01/13/2003 5.7 93 33
121 Eel-Grass 01/13/2003 6.0 33 11
122 Epitaph 01/13/2003 6.1 38 17
123 Journey 01/13/2003 6.2 26 17
124 What Lips My Lips Have Kissed, And Where, And Why (Sonnet Xliii) 01/13/2003 7.9 126 380
125 The Dream 01/13/2003 5.8 62 27
126 Sonnet 06: Bluebeard 01/13/2003 6.1 49 9
127 Burial 01/13/2003 5.3 89 30
128 Assault 01/13/2003 5.7 125 20
129 Modern Declaration 01/13/2003 5.6 34 9
130 The Death Of Autumn 01/13/2003 5.9 59 10
131 Sonnet 05: If I Should Learn, In Some Quite Casual Way 01/13/2003 5.9 48 18
132 Sonnets 06: No Rose That In A Garden Ever Grew 01/13/2003 5.6 42 7
133 Three Songs Of Shattering 01/13/2003 5.9 38 9
134 To Those Without Pity 01/13/2003 5.1 39 10
135 Sonnets 05: Once More Into My Arid Days Like Dew 01/13/2003 5.7 32 8
136 Sonnets 10: Oh, My Beloved, Have You Thought Of This 01/13/2003 5.8 45 6
137 The Philosopher 01/13/2003 5.6 44 23
138 Sonnets 08: And You As Well Must Die, Beloved Dust 01/13/2003 5.5 50 7
139 My Most Distinguished Guest And Learned Friend 01/13/2003 5.4 35 9
140 Sonnets 01: We Talk Of Taxes, And I Call You Friend 01/13/2003 5.4 48 9
141 Pastoral 01/13/2003 5.1 35 5
142 Souvenir 01/13/2003 5.6 46 11
143 Sonnet 01: Thou Art Not Lovelier Than Lilacs,&Mdash;No 01/13/2003 5.7 44 15
144 Sonnet 02: Time Does Not Bring Relief; You All Have Lied 01/13/2003 6.5 66 67
145 Exiled 01/13/2003 6.5 44 22
146 To The Not Impossible Him 01/13/2003 5.3 52 14
147 The Unexplorer 01/13/2003 6.0 49 8
148 Passer Mortuus Est 01/13/2003 5.8 46 10
149 Pity Me Not Because The Light Of Day 01/13/2003 6.3 38 32
150 An Ancient Gesture 01/13/2003 6.0 108 49
151 The Return From Town 01/13/2003 5.5 47 6
152 Prayer To Persephone 01/13/2003 5.5 33 18
153 The Poet And His Book 01/13/2003 6.2 40 11
154 Ode To Silence 01/13/2003 5.9 33 15
155 Indifference 01/13/2003 5.8 33 11
156 Tavern 01/13/2003 5.6 48 8
157 Sonnet 04: Not In This Chamber Only At My Birth 01/13/2003 5.5 43 4
158 Sonnets 02: Into The Golden Vessel Of Great Song 01/13/2003 5.3 55 3
159 Conscientious Objector 01/13/2003 5.5 180 73
160 Sonnets 03: Not With Libations, But With Shouts And Laughter 01/13/2003 5.8 56 6
161 Feast 01/13/2003 6.0 50 14
162 Invocation To The Muses 01/13/2003 5.8 37 4
163 Mariposa 01/13/2003 6.6 50 13
164 Departure 01/13/2003 5.5 88 41
165 And Do You Think That Love Itself 01/13/2003 6.1 115 63
166 Oh, Oh, You Will Be Sorry 01/13/2003 6.4 38 34
167 Travel 01/13/2003 6.0 41 17
168 The Snow Storm 01/13/2003 5.8 75 7
169 First Fig 01/13/2003 7.5 74 93
170 God's World 01/04/2003 6.1 70 38
171 Afternoon On A Hill 01/04/2003 6.6 119 78
172 When The Year Grows Old 01/04/2003 5.7 38 17
173 Renascence 01/04/2003 7.0 31 61
[Hata Bildir]